Time;durP1;ratioP1;P1;durP2;ratioP2;P2;SDS_P1;SDS_P2;PMS_P1;PMS_P2;Temp;Humidity;BMP_temperature;BMP_pressure;BME280_temperature;BME280_humidity;BME280_pressure;Samples;Min_cycle;Max_cycle;Signal;HPM_P1;HPM_P2
2021/01/31 00:00:16;;;;;;;20.17;12.55;;;10.70;78.80;;;;;;4979423;28;20060;-48
2021/01/31 00:02:42;;;;;;;20.20;11.77;;;10.90;78.20;;;;;;5013772;28;20438;-48
2021/01/31 00:05:09;;;;;;;12.88;8.70;;;11.00;77.80;;;;;;5013818;28;20029;-48
2021/01/31 00:07:35;;;;;;;17.85;11.73;;;11.00;77.30;;;;;;5013918;28;20030;-48
2021/01/31 00:10:01;;;;;;;14.68;9.88;;;11.10;76.70;;;;;;4979118;28;20107;-48
2021/01/31 00:12:26;;;;;;;10.98;7.20;;;10.80;77.40;;;;;;5013622;28;20045;-48
2021/01/31 00:14:52;;;;;;;12.43;8.50;;;10.60;78.40;;;;;;5013704;28;20025;-49
2021/01/31 00:17:18;;;;;;;15.90;9.65;;;10.60;78.70;;;;;;5013800;28;20531;-48
2021/01/31 00:19:44;;;;;;;14.88;8.60;;;10.20;79.70;;;;;;5013866;28;20026;-49
2021/01/31 00:22:10;;;;;;;15.73;8.65;;;10.10;81.00;;;;;;5014028;28;20026;-48
2021/01/31 00:24:35;;;;;;;15.07;9.63;;;10.20;80.90;;;;;;5013341;28;20124;-48
2021/01/31 00:27:01;;;;;;;19.77;13.00;;;10.30;80.50;;;;;;5013283;28;20026;-48
2021/01/31 00:29:27;;;;;;;18.20;11.32;;;10.20;80.20;;;;;;5013766;28;20026;-48
2021/01/31 00:31:53;;;;;;;33.63;22.60;;;10.30;80.50;;;;;;5013270;28;20036;-48
2021/01/31 00:34:20;;;;;;;21.25;13.77;;;10.10;80.60;;;;;;5013794;28;20084;-48
2021/01/31 00:36:47;;;;;;;15.77;10.68;;;10.30;80.70;;;;;;4996268;28;20036;-48
2021/01/31 00:39:13;;;;;;;16.45;11.73;;;10.20;80.30;;;;;;5013289;28;20133;-48
2021/01/31 00:41:39;;;;;;;18.60;12.93;;;10.30;79.40;;;;;;5013691;28;20470;-48
2021/01/31 00:44:06;;;;;;;26.20;15.82;;;10.30;80.00;;;;;;4995318;28;20062;-48
2021/01/31 00:46:37;;;;;;;43.47;22.35;;;10.20;80.90;;;;;;4979014;28;20496;-50
2021/01/31 00:49:04;;;;;;;47.47;22.50;;;10.00;81.40;;;;;;5013300;28;20084;-48
2021/01/31 00:51:30;;;;;;;40.15;21.70;;;10.10;82.10;;;;;;5013754;28;20052;-48
2021/01/31 00:53:56;;;;;;;39.83;22.52;;;10.20;82.50;;;;;;5013168;28;20547;-48
2021/01/31 00:56:22;;;;;;;30.08;18.65;;;10.20;81.80;;;;;;5013861;28;20033;-48
2021/01/31 00:58:48;;;;;;;26.25;17.02;;;10.30;80.90;;;;;;4995930;28;20362;-48
2021/01/31 01:01:15;;;;;;;28.52;16.25;;;10.40;79.90;;;;;;4978424;28;20045;-48
2021/01/31 01:03:41;;;;;;;40.63;15.63;;;10.50;81.20;;;;;;5013669;28;20033;-49
2021/01/31 01:06:07;;;;;;;22.48;12.48;;;10.70;69.90;;;;;;5013342;28;20041;-49
2021/01/31 01:08:33;;;;;;;33.30;19.30;;;10.90;75.20;;;;;;4978415;28;20038;-48
2021/01/31 01:10:59;;;;;;;54.60;25.00;;;11.10;70.10;;;;;;5013149;28;20347;-48
2021/01/31 01:13:25;;;;;;;28.58;15.32;;;11.20;70.40;;;;;;5013116;28;20050;-48
2021/01/31 01:15:50;;;;;;;30.58;15.27;;;11.20;69.40;;;;;;5013043;28;20120;-48
2021/01/31 01:18:16;;;;;;;53.03;18.65;;;11.30;68.40;;;;;;5013275;28;20078;-48
2021/01/31 01:20:42;;;;;;;30.75;13.68;;;11.40;67.30;;;;;;5013219;28;20034;-48
2021/01/31 01:23:08;;;;;;;36.38;14.27;;;11.50;68.80;;;;;;5012867;28;20034;-48
2021/01/31 01:25:33;;;;;;;41.40;16.85;;;11.60;68.90;;;;;;4955531;28;20046;-49
2021/01/31 01:27:59;;;;;;;35.28;15.90;;;11.60;68.60;;;;;;4971883;28;20035;-48
2021/01/31 01:30:28;;;;;;;30.08;13.38;;;11.50;72.50;;;;;;4971697;28;20039;-48
2021/01/31 01:32:54;;;;;;;27.60;14.15;;;11.50;68.80;;;;;;4971856;28;20117;-48
2021/01/31 01:35:21;;;;;;;28.48;13.77;;;11.40;75.90;;;;;;4971836;28;20133;-48
2021/01/31 01:37:47;;;;;;;33.78;18.42;;;11.30;77.10;;;;;;4971518;28;20039;-48
2021/01/31 01:40:37;;;;;;;40.30;21.10;;;10.90;79.80;;;;;;4973961;28;20035;-48
2021/01/31 01:43:04;;;;;;;37.13;22.52;;;10.90;78.10;;;;;;4974986;28;20038;-48
2021/01/31 01:45:30;;;;;;;36.38;21.42;;;11.00;78.40;;;;;;4926721;28;20047;-48
2021/01/31 01:48:16;;;;;;;32.03;20.30;;;11.00;79.20;;;;;;4975160;28;20035;-48
2021/01/31 01:50:51;;;;;;;25.73;16.77;;;11.00;78.40;;;;;;4955726;29;20040;-48
2021/01/31 01:53:21;;;;;;;27.33;17.75;;;11.00;76.30;;;;;;4955496;29;20396;-48
2021/01/31 01:55:57;;;;;;;35.38;21.05;;;11.00;76.00;;;;;;4955695;29;20051;-48
2021/01/31 01:58:23;;;;;;;74.32;50.45;;;11.10;75.40;;;;;;4955726;29;20475;-48
2021/01/31 02:00:50;;;;;;;62.30;39.78;;;11.00;74.00;;;;;;4891716;29;20118;-48
2021/01/31 02:03:28;;;;;;;30.67;19.90;;;11.00;74.80;;;;;;4978909;28;20165;-48
2021/01/31 02:06:17;;;;;;;44.10;30.70;;;11.00;73.40;;;;;;4994283;28;20042;-49
2021/01/31 02:08:42;;;;;;;41.60;30.58;;;11.00;73.60;;;;;;4993759;28;20034;-48
2021/01/31 02:11:10;;;;;;;32.25;20.88;;;10.80;73.90;;;;;;4993989;28;20046;-48
2021/01/31 02:13:38;;;;;;;36.97;24.27;;;11.00;73.50;;;;;;4994049;28;20058;-48
2021/01/31 02:16:12;;;;;;;38.53;24.52;;;11.00;73.80;;;;;;4993735;28;20051;-49
2021/01/31 02:18:54;;;;;;;30.90;20.20;;;10.80;73.50;;;;;;4993917;28;20033;-48
2021/01/31 02:21:45;;;;;;;34.53;23.02;;;10.70;74.50;;;;;;5010515;28;20045;-48
2021/01/31 02:24:37;;;;;;;33.45;22.15;;;10.50;76.10;;;;;;5034987;28;20022;-48
2021/01/31 02:27:18;;;;;;;21.33;14.32;;;10.60;77.60;;;;;;5035617;28;20479;-48
2021/01/31 02:30:02;;;;;;;22.07;14.63;;;10.00;79.40;;;;;;5017452;28;20041;-49
2021/01/31 02:33:02;;;;;;;22.38;16.08;;;10.00;80.10;;;;;;5035046;28;20132;-48
2021/01/31 02:35:29;;;;;;;24.10;16.17;;;10.00;79.40;;;;;;5000228;28;20037;-49
2021/01/31 02:38:16;;;;;;;22.00;16.00;;;9.90;80.20;;;;;;5035026;28;20025;-48
2021/01/31 02:41:07;;;;;;;23.33;16.50;;;10.00;79.60;;;;;;5035397;28;20033;-48
2021/01/31 02:43:36;;;;;;;25.25;17.55;;;10.30;79.10;;;;;;4974071;28;20035;-48
2021/01/31 02:46:16;;;;;;;28.38;18.80;;;10.30;80.30;;;;;;4973625;28;20078;-49
2021/01/31 02:48:52;;;;;;;32.63;21.00;;;10.40;79.70;;;;;;4973680;28;20121;-48
2021/01/31 02:51:28;;;;;;;29.05;20.05;;;10.60;78.40;;;;;;4973449;28;20041;-48
2021/01/31 02:54:20;;;;;;;38.63;24.85;;;10.60;78.80;;;;;;4973595;28;20078;-48
2021/01/31 02:56:50;;;;;;;;;;;10.70;78.30;;;;;;4974295;28;20041;-49
2021/01/31 02:59:26;;;;;;;38.92;25.08;;;10.70;78.40;;;;;;4973361;28;20317;-48
2021/01/31 03:02:05;;;;;;;46.85;29.67;;;10.50;78.90;;;;;;4973607;28;20042;-48
2021/01/31 03:04:51;;;;;;;46.17;30.10;;;10.60;78.30;;;;;;4957179;28;20047;-48
2021/01/31 03:07:44;;;;;;;52.08;32.83;;;10.70;78.00;;;;;;4973181;28;20034;-48
2021/01/31 03:10:34;;;;;;;63.30;39.65;;;10.80;78.00;;;;;;4973582;28;20066;-48
2021/01/31 03:13:23;;;;;;;73.95;45.08;;;10.70;78.40;;;;;;4956938;28;20055;-48
2021/01/31 03:15:54;;;;;;;63.03;40.80;;;10.90;78.10;;;;;;4973176;28;20114;-48
2021/01/31 03:18:42;;;;;;;70.33;43.03;;;10.90;78.20;;;;;;4973424;28;20035;-48
2021/01/31 03:21:24;;;;;;;74.55;44.50;;;10.90;79.50;;;;;;5019783;28;20033;-50
2021/01/31 03:24:09;;;;;;;69.15;42.85;;;10.90;79.80;;;;;;5034283;28;20412;-48
2021/01/31 03:26:38;;;;;;;51.83;31.85;;;10.80;79.80;;;;;;5034110;28;20381;-49
2021/01/31 03:29:04;;;;;;;59.60;37.95;;;10.80;78.40;;;;;;5033820;28;20021;-49
2021/01/31 03:31:33;;;;;;;59.15;37.88;;;10.80;78.60;;;;;;5034098;28;20552;-48
2021/01/31 03:34:06;;;;;;;61.92;38.22;;;10.90;78.10;;;;;;5034295;28;20079;-48
2021/01/31 03:36:35;;;;;;;63.30;35.90;;;10.90;78.50;;;;;;5033651;28;20071;-48
2021/01/31 03:39:03;;;;;;;55.35;36.33;;;10.90;77.50;;;;;;5033804;28;20033;-48
2021/01/31 03:41:30;;;;;;;50.58;33.38;;;11.00;77.30;;;;;;5033853;28;20037;-48
2021/01/31 03:43:56;;;;;;;45.00;30.65;;;11.10;78.20;;;;;;5033625;28;20471;-48
2021/01/31 03:46:31;;;;;;;45.70;28.92;;;11.10;77.10;;;;;;5033744;28;20029;-48
2021/01/31 03:49:22;;;;;;;38.33;25.45;;;11.20;76.60;;;;;;4998606;28;20397;-48
2021/01/31 03:51:48;;;;;;;42.75;22.92;;;11.20;76.60;;;;;;5033802;28;20037;-48
2021/01/31 03:54:14;;;;;;;34.75;22.55;;;11.20;75.40;;;;;;5033793;28;20458;-48
2021/01/31 03:57:17;;;;;;;35.78;23.13;;;11.10;75.30;;;;;;5033663;28;20025;-48
2021/01/31 04:00:03;;;;;;;43.22;27.02;;;11.00;74.90;;;;;;5030240;28;20065;-47
2021/01/31 04:02:37;;;;;;;62.45;38.50;;;11.00;76.30;;;;;;5032776;28;20105;-48
2021/01/31 04:05:05;;;;;;;62.88;37.20;;;10.90;77.00;;;;;;5033460;28;20033;-48
2021/01/31 04:07:35;;;;;;;48.03;30.45;;;10.80;77.50;;;;;;5010955;28;20100;-48
2021/01/31 04:10:03;;;;;;;43.25;25.92;;;10.90;77.50;;;;;;4994995;28;20034;-48
2021/01/31 04:12:34;;;;;;;34.55;21.63;;;10.90;77.30;;;;;;4994348;28;20398;-48
2021/01/31 04:15:15;;;;;;;37.63;22.60;;;10.90;76.20;;;;;;4978327;28;20161;-48
2021/01/31 04:17:43;;;;;;;61.80;35.85;;;10.60;76.60;;;;;;5011407;28;20117;-48
2021/01/31 04:20:10;;;;;;;73.32;43.60;;;10.60;78.20;;;;;;5011533;28;20026;-47
2021/01/31 04:22:36;;;;;;;60.05;35.55;;;9.60;82.60;;;;;;5011150;28;20518;-48
2021/01/31 04:25:03;;;;;;;46.63;28.33;;;9.30;84.20;;;;;;5011072;28;20088;-51
2021/01/31 04:27:28;;;;;;;54.72;35.35;;;9.30;83.60;;;;;;5011340;28;20062;-48
2021/01/31 04:29:54;;;;;;;58.60;35.28;;;9.60;84.40;;;;;;5011063;28;20068;-48
2021/01/31 04:32:20;;;;;;;46.00;29.80;;;;;;;;;;5011390;28;20037;-50
2021/01/31 04:34:46;;;;;;;48.65;30.80;;;;;;;;;;5011355;28;20041;-50
2021/01/31 04:37:13;;;;;;;44.45;27.60;;;9.80;82.40;;;;;;4994486;28;20046;-50
2021/01/31 04:39:39;;;;;;;42.50;26.45;;;9.60;83.20;;;;;;5032458;28;20584;-48
2021/01/31 04:42:07;;;;;;;41.50;26.73;;;9.70;83.60;;;;;;5033134;28;20021;-48
2021/01/31 04:44:33;;;;;;;46.00;30.65;;;9.70;83.20;;;;;;4997978;28;20493;-47
2021/01/31 04:47:04;;;;;;;51.97;32.58;;;10.00;85.00;;;;;;5014631;28;20124;-48
2021/01/31 04:49:40;;;;;;;57.10;33.67;;;10.30;84.90;;;;;;5033107;28;20362;-48
2021/01/31 04:52:27;;;;;;;52.30;33.38;;;10.40;84.60;;;;;;5032953;28;20029;-48
2021/01/31 04:55:04;;;;;;;52.28;34.60;;;10.50;85.90;;;;;;5033168;28;20353;-49
2021/01/31 04:58:00;;;;;;;41.72;29.75;;;10.60;85.90;;;;;;5032820;28;20026;-49
2021/01/31 05:00:28;;;;;;;44.30;29.58;;;10.60;83.80;;;;;;4971850;28;20405;-49
2021/01/31 05:03:00;;;;;;;45.08;30.73;;;10.60;86.10;;;;;;4971798;28;20062;-49
2021/01/31 05:06:02;;;;;;;48.65;30.08;;;10.60;87.90;;;;;;4971741;28;20414;-49
2021/01/31 05:08:30;;;;;;;48.60;30.77;;;10.50;88.30;;;;;;4965760;28;20150;-49
2021/01/31 05:11:17;;;;;;;43.08;28.55;;;10.50;88.60;;;;;;4972065;28;20047;-49
2021/01/31 05:13:49;;;;;;;39.20;26.15;;;10.40;89.20;;;;;;4973326;28;20051;-50
2021/01/31 05:16:16;;;;;;;32.78;21.88;;;10.30;90.00;;;;;;4943606;28;20515;-48
2021/01/31 05:18:49;;;;;;;33.80;23.33;;;10.30;90.10;;;;;;4959657;28;20090;-47
2021/01/31 05:21:18;;;;;;;35.33;23.63;;;10.30;90.40;;;;;;4975428;28;20110;-48
2021/01/31 05:23:50;;;;;;;36.55;24.15;;;10.30;90.60;;;;;;4974943;28;20039;-48
2021/01/31 05:26:17;;;;;;;35.13;24.10;;;10.30;90.70;;;;;;4975621;28;20085;-48
2021/01/31 05:28:50;;;;;;;35.55;24.58;;;10.30;90.40;;;;;;4975016;28;20038;-48
2021/01/31 05:31:18;;;;;;;35.20;24.83;;;10.30;90.60;;;;;;4975371;28;20517;-48
2021/01/31 05:33:51;;;;;;;34.63;22.48;;;10.30;90.70;;;;;;4975325;28;20038;-48
2021/01/31 05:36:18;;;;;;;36.70;24.23;;;10.30;90.80;;;;;;4959648;28;20035;-49
2021/01/31 05:38:47;;;;;;;32.92;22.92;;;10.30;91.10;;;;;;5016556;28;20044;-47
2021/01/31 05:41:43;;;;;;;34.47;23.75;;;10.20;91.30;;;;;;5016556;28;20377;-48
2021/01/31 05:44:30;;;;;;;32.97;23.13;;;10.30;91.70;;;;;;5016237;28;20485;-48
2021/01/31 05:47:01;;;;;;;35.22;25.67;;;10.30;91.10;;;;;;4996700;28;20528;-47
2021/01/31 05:49:40;;;;;;;36.55;24.83;;;10.30;91.10;;;;;;5015105;28;20438;-48
2021/01/31 05:52:30;;;;;;;37.60;25.65;;;10.10;91.80;;;;;;5015295;28;20034;-48
2021/01/31 05:54:57;;;;;;;35.90;26.13;;;9.80;92.50;;;;;;5015214;28;20026;-47
2021/01/31 05:57:35;;;;;;;34.50;25.20;;;9.90;92.50;;;;;;5014955;28;20026;-49
2021/01/31 06:00:27;;;;;;;32.80;25.40;;;9.90;92.50;;;;;;5014871;28;20153;-49
2021/01/31 06:02:59;;;;;;;48.63;35.75;;;9.90;92.30;;;;;;4980111;28;20049;-48
2021/01/31 06:05:24;;;;;;;58.42;42.83;;;9.90;92.40;;;;;;4980001;28;20042;-49
2021/01/31 06:08:04;;;;;;;60.22;42.20;;;10.00;92.20;;;;;;4996265;28;20040;-48
2021/01/31 06:10:32;;;;;;;68.13;47.42;;;10.10;92.30;;;;;;4996375;28;20159;-48
2021/01/31 06:13:09;;;;;;;67.30;45.10;;;10.20;92.20;;;;;;5014206;28;20207;-49
2021/01/31 06:15:42;;;;;;;74.93;52.70;;;10.20;92.70;;;;;;5014652;28;20022;-48
2021/01/31 06:18:18;;;;;;;75.93;55.22;;;10.20;92.60;;;;;;5014538;28;20589;-48
2021/01/31 06:20:45;;;;;;;60.33;42.72;;;10.20;92.60;;;;;;4996928;28;20030;-48
2021/01/31 06:23:33;;;;;;;52.17;38.33;;;9.70;93.80;;;;;;4979790;28;20041;-48
2021/01/31 06:26:00;;;;;;;61.97;44.47;;;9.30;95.20;;;;;;5013458;28;20112;-49
2021/01/31 06:28:30;;;;;;;60.20;41.05;;;9.10;95.70;;;;;;5014443;28;20064;-48
2021/01/31 06:31:12;;;;;;;75.90;51.22;;;9.00;96.00;;;;;;4996681;28;20038;-48
2021/01/31 06:33:40;;;;;;;74.53;50.75;;;8.70;96.80;;;;;;4979520;28;20084;-49
2021/01/31 06:36:30;;;;;;;77.95;51.85;;;8.60;97.10;;;;;;4977011;28;20034;-48
2021/01/31 06:39:13;;;;;;;75.07;48.72;;;8.50;97.80;;;;;;5014047;28;20109;-50
2021/01/31 06:41:51;;;;;;;60.42;41.95;;;8.40;97.90;;;;;;5014001;28;20473;-49
2021/01/31 06:44:21;;;;;;;47.40;29.70;;;8.40;97.70;;;;;;5014094;28;20129;-48
2021/01/31 06:47:10;;;;;;;36.92;23.85;;;8.20;97.80;;;;;;5014058;28;20053;-49
2021/01/31 06:49:50;;;;;;;41.15;28.65;;;8.10;98.30;;;;;;4934118;29;20046;-49
2021/01/31 06:52:16;;;;;;;51.78;32.75;;;8.00;99.10;;;;;;4933900;29;20048;-49
2021/01/31 06:54:44;;;;;;;46.92;32.97;;;8.00;99.80;;;;;;4934067;29;20488;-49
2021/01/31 06:57:13;;;;;;;43.83;32.28;;;8.00;99.90;;;;;;4934234;29;20031;-49
2021/01/31 07:00:06;;;;;;;39.70;28.27;;;8.00;99.90;;;;;;4933974;29;20035;-49
2021/01/31 07:02:43;;;;;;;42.08;30.98;;;8.00;99.90;;;;;;4934071;29;20053;-50
2021/01/31 07:05:09;;;;;;;40.50;29.60;;;8.10;99.90;;;;;;4933683;29;20369;-49
2021/01/31 07:08:12;;;;;;;44.53;29.05;;;8.10;99.90;;;;;;4933762;29;20043;-49
2021/01/31 07:10:37;;;;;;;38.42;29.35;;;8.10;99.90;;;;;;4902087;29;20399;-49
2021/01/31 07:13:35;;;;;;;39.08;28.63;;;8.10;99.90;;;;;;4946529;29;20039;-48
2021/01/31 07:16:19;;;;;;;42.42;31.00;;;8.10;99.90;;;;;;4952868;29;20704;-49
2021/01/31 07:19:04;;;;;;;44.03;32.42;;;8.00;99.90;;;;;;4952768;29;20535;-48
2021/01/31 07:22:04;;;;;;;42.35;29.90;;;8.10;99.90;;;;;;4936716;29;20035;-49
2021/01/31 07:24:39;;;;;;;43.95;32.45;;;8.10;99.90;;;;;;4933490;29;20055;-48
2021/01/31 07:27:22;;;;;;;45.28;30.65;;;8.00;99.90;;;;;;4926816;29;20040;-48
2021/01/31 07:29:59;;;;;;;48.15;34.08;;;8.00;99.90;;;;;;4917055;29;20492;-49
2021/01/31 07:32:38;;;;;;;46.47;33.40;;;8.10;99.90;;;;;;4933542;29;20032;-48
2021/01/31 07:35:09;;;;;;;48.55;36.55;;;7.90;99.90;;;;;;4933363;29;20039;-48
2021/01/31 07:37:37;;;;;;;49.83;37.90;;;7.90;99.90;;;;;;4933326;29;20044;-49
2021/01/31 07:40:08;;;;;;;47.72;36.65;;;8.00;99.90;;;;;;4933246;29;20128;-48
2021/01/31 07:42:39;;;;;;;52.30;41.28;;;7.90;99.90;;;;;;4933106;29;20035;-48
2021/01/31 07:45:16;;;;;;;47.55;37.00;;;8.10;99.90;;;;;;4933154;29;20114;-48
2021/01/31 07:47:42;;;;;;;49.75;37.67;;;8.00;99.90;;;;;;4933005;29;20131;-49
2021/01/31 07:50:08;;;;;;;55.40;41.83;;;8.00;99.90;;;;;;4933148;29;20504;-48
2021/01/31 07:52:49;;;;;;;54.00;40.55;;;8.10;99.90;;;;;;4917246;29;20057;-48
2021/01/31 07:55:15;;;;;;;51.13;40.58;;;8.00;99.90;;;;;;4933065;29;20055;-49
2021/01/31 07:57:41;;;;;;;52.85;40.20;;;8.10;99.90;;;;;;4945612;28;20074;-48
2021/01/31 08:00:17;;;;;;;49.28;40.85;;;8.10;99.90;;;;;;4971469;28;20564;-49
2021/01/31 08:02:45;;;;;;;53.13;42.83;;;8.20;99.90;;;;;;5014422;28;20478;-49
2021/01/31 08:05:50;;;;;;;59.92;42.92;;;8.20;99.90;;;;;;4981106;28;20041;-49
2021/01/31 08:08:37;;;;;;;49.20;38.13;;;8.20;99.90;;;;;;5032415;28;20038;-49
2021/01/31 08:11:04;;;;;;;46.63;38.17;;;8.10;99.90;;;;;;5032907;28;20026;-49
2021/01/31 08:13:36;;;;;;;44.67;37.35;;;8.30;99.90;;;;;;5056796;28;20049;-49
2021/01/31 08:16:40;;;;;;;46.15;36.53;;;8.30;99.90;;;;;;5005608;28;20049;-49
2021/01/31 08:19:29;;;;;;;45.42;35.22;;;8.50;99.90;;;;;;5051861;28;20041;-49
2021/01/31 08:21:56;;;;;;;44.38;35.97;;;8.20;99.90;;;;;;5051880;28;20107;-48
2021/01/31 08:24:58;;;;;;;50.80;38.33;;;8.20;99.90;;;;;;5052080;28;20041;-49
2021/01/31 08:27:41;;;;;;;48.70;36.25;;;8.20;99.90;;;;;;5051936;28;20041;-50
2021/01/31 08:30:34;;;;;;;46.70;36.97;;;8.20;99.90;;;;;;5051934;28;20025;-48
2021/01/31 08:33:00;;;;;;;49.05;38.55;;;8.40;99.90;;;;;;5052028;28;20048;-48
2021/01/31 08:35:42;;;;;;;52.80;41.03;;;8.20;99.90;;;;;;5033983;28;20029;-48
2021/01/31 08:38:28;;;;;;;56.25;42.53;;;8.30;99.90;;;;;;5016766;28;20029;-48
2021/01/31 08:41:03;;;;;;;55.47;43.17;;;8.40;99.90;;;;;;5051680;28;20045;-48
2021/01/31 08:43:38;;;;;;;62.33;46.60;;;8.70;99.90;;;;;;5051777;28;20124;-48
2021/01/31 08:46:13;;;;;;;45.88;36.53;;;8.70;99.90;;;;;;5050089;28;20377;-47
2021/01/31 08:48:40;;;;;;;46.13;37.00;;;8.50;99.90;;;;;;5053361;28;20109;-48
2021/01/31 08:51:12;;;;;;;45.55;36.67;;;8.50;99.90;;;;;;5055969;28;20182;-48
2021/01/31 08:53:38;;;;;;;50.38;40.00;;;8.50;99.90;;;;;;5056097;28;20120;-47
2021/01/31 08:56:22;;;;;;;47.22;36.45;;;8.40;99.90;;;;;;5055847;28;20480;-47
2021/01/31 08:58:49;;;;;;;52.00;40.95;;;8.40;99.90;;;;;;5020649;28;20033;-48
2021/01/31 09:01:15;;;;;;;50.00;40.90;;;8.40;99.90;;;;;;5056457;28;20033;-48
2021/01/31 09:03:45;;;;;;;47.05;37.38;;;8.50;99.90;;;;;;4994843;28;20038;-48
2021/01/31 09:06:12;;;;;;;44.55;36.05;;;8.70;99.90;;;;;;4995072;28;20129;-48
2021/01/31 09:08:41;;;;;;;50.58;39.13;;;8.60;99.90;;;;;;4994985;28;20117;-48
2021/01/31 09:11:11;;;;;;;41.75;34.08;;;8.60;99.90;;;;;;4994660;28;20061;-48
2021/01/31 09:13:38;;;;;;;44.63;35.70;;;8.60;99.90;;;;;;4994923;28;20221;-48
2021/01/31 09:16:21;;;;;;;44.90;34.65;;;8.50;99.90;;;;;;4978769;28;20593;-48
2021/01/31 09:19:01;;;;;;;43.17;34.78;;;8.30;99.90;;;;;;4994766;28;20478;-49
2021/01/31 09:21:33;;;;;;;46.05;34.70;;;8.30;99.90;;;;;;4980590;28;20052;-48
2021/01/31 09:24:01;;;;;;;45.25;35.47;;;8.20;99.90;;;;;;4994504;28;20049;-48
2021/01/31 09:26:28;;;;;;;46.20;36.33;;;8.10;99.90;;;;;;4994901;28;20038;-48
2021/01/31 09:28:56;;;;;;;45.80;35.00;;;8.20;99.90;;;;;;4993991;28;20049;-49
2021/01/31 09:31:24;;;;;;;51.42;38.65;;;8.30;99.90;;;;;;4945988;28;20038;-48
2021/01/31 09:33:53;;;;;;;48.78;37.00;;;8.20;99.90;;;;;;4971155;28;20412;-45
2021/01/31 09:36:30;;;;;;;49.38;38.35;;;8.40;99.90;;;;;;5056275;28;20108;-48
2021/01/31 09:38:58;;;;;;;53.83;38.05;;;8.40;99.90;;;;;;5055970;28;20037;-50
2021/01/31 09:41:28;;;;;;;58.67;42.35;;;8.30;99.90;;;;;;5056144;28;20479;-50
2021/01/31 09:43:57;;;;;;;49.08;38.03;;;8.30;99.90;;;;;;5037291;28;20663;-55
2021/01/31 09:46:27;;;;;;;64.03;44.67;;;8.40;99.90;;;;;;5055910;28;20045;-56
2021/01/31 09:49:15;;;;;;;65.78;45.53;;;8.40;99.90;;;;;;5055963;28;20031;-52
2021/01/31 09:51:42;;;;;;;60.22;44.13;;;8.50;99.90;;;;;;5037732;28;20551;-54
2021/01/31 09:54:29;;;;;;;49.45;38.60;;;8.50;99.90;;;;;;5055720;28;20460;-54
2021/01/31 09:56:58;;;;;;;52.22;36.35;;;8.50;99.90;;;;;;5055860;28;20036;-50
2021/01/31 09:59:30;;;;;;;59.58;43.47;;;8.40;99.90;;;;;;5054700;28;20029;-55
2021/01/31 10:02:05;;;;;;;55.72;41.20;;;8.30;99.90;;;;;;5055117;28;20504;-53
2021/01/31 10:04:32;;;;;;;57.10;41.75;;;8.30;99.90;;;;;;5055795;28;20628;-58
2021/01/31 10:07:26;;;;;;;60.90;43.60;;;8.30;99.90;;;;;;5055240;28;20017;-52
2021/01/31 10:09:52;;;;;;;52.80;39.70;;;8.30;99.90;;;;;;4974148;28;20046;-54
2021/01/31 10:12:28;;;;;;;54.55;40.05;;;8.20;99.90;;;;;;4974575;28;20125;-53
2021/01/31 10:15:07;;;;;;;53.22;38.83;;;8.20;99.90;;;;;;4974747;28;20423;-55
2021/01/31 10:17:38;;;;;;;49.10;36.97;;;8.30;99.90;;;;;;4958636;28;20031;-52
2021/01/31 10:20:28;;;;;;;50.90;36.88;;;8.40;99.90;;;;;;4974528;28;20035;-53
2021/01/31 10:23:06;;;;;;;53.58;38.72;;;8.40;99.90;;;;;;4974799;28;20097;-51
2021/01/31 10:25:37;;;;;;;56.17;40.40;;;8.20;99.90;;;;;;4974524;28;20046;-52
2021/01/31 10:28:04;;;;;;;50.00;36.95;;;8.20;99.90;;;;;;4974356;28;20050;-54
2021/01/31 10:30:36;;;;;;;63.10;41.45;;;8.10;99.90;;;;;;4974188;28;20069;-54
2021/01/31 10:33:02;;;;;;;49.25;35.75;;;8.30;99.90;;;;;;4974527;28;20047;-53
2021/01/31 10:35:39;;;;;;;45.45;35.47;;;8.30;99.90;;;;;;4974281;28;20078;-54
2021/01/31 10:38:28;;;;;;;49.28;35.95;;;8.40;99.90;;;;;;4974196;28;20143;-50
2021/01/31 10:40:55;;;;;;;61.33;41.38;;;8.40;99.90;;;;;;4974383;28;20035;-51
2021/01/31 10:43:22;;;;;;;63.10;43.28;;;8.40;99.90;;;;;;4974358;28;20042;-48
2021/01/31 10:45:48;;;;;;;45.40;34.63;;;8.70;99.60;;;;;;4980013;28;20070;-52
2021/01/31 10:48:14;;;;;;;48.70;35.33;;;8.50;99.30;;;;;;5054363;28;20477;-50
2021/01/31 10:50:40;;;;;;;48.45;32.47;;;8.60;99.50;;;;;;5018320;28;20099;-52
2021/01/31 10:53:05;;;;;;;57.13;40.78;;;8.40;99.30;;;;;;5033186;28;20496;-52
2021/01/31 10:55:32;;;;;;;46.03;33.47;;;8.20;99.90;;;;;;5015179;28;20501;-48
2021/01/31 10:57:57;;;;;;;45.78;35.50;;;8.10;99.50;;;;;;5033769;28;20030;-51
2021/01/31 11:00:23;;;;;;;43.33;30.85;;;8.00;99.90;;;;;;5014319;28;20095;-52
2021/01/31 11:02:49;;;;;;;35.42;26.42;;;7.90;99.70;;;;;;5031271;28;20041;-51
2021/01/31 11:05:16;;;;;;;41.88;31.25;;;7.70;99.80;;;;;;5014550;28;20057;-50
2021/01/31 11:07:42;;;;;;;46.65;33.78;;;7.70;99.90;;;;;;5030965;28;20025;-53
2021/01/31 11:10:10;;;;;;;34.95;22.90;;;;;;;;;;5031035;28;20092;-53
2021/01/31 11:12:35;;;;;;;30.10;21.38;;;7.40;99.90;;;;;;5030519;28;20049;-53
2021/01/31 11:15:01;;;;;;;35.97;26.55;;;7.10;99.90;;;;;;5030877;28;20048;-50
2021/01/31 11:17:27;;;;;;;36.40;24.50;;;6.90;99.90;;;;;;5014366;28;20040;-48
2021/01/31 11:19:52;;;;;;;42.72;27.98;;;6.90;99.90;;;;;;5030928;28;20084;-49
2021/01/31 11:22:18;;;;;;;35.95;27.85;;;6.80;99.90;;;;;;5030587;28;20025;-49
2021/01/31 11:24:45;;;;;;;33.88;22.85;;;6.90;99.90;;;;;;5030869;28;20041;-50
2021/01/31 11:27:11;;;;;;;31.23;23.95;;;6.70;99.90;;;;;;5030861;28;20029;-49
2021/01/31 11:29:37;;;;;;;33.10;23.73;;;6.70;99.90;;;;;;5030665;28;20084;-53
2021/01/31 11:32:04;;;;;;;32.15;22.00;;;6.60;99.90;;;;;;5026918;28;20417;-53
2021/01/31 11:34:30;;;;;;;30.42;22.33;;;6.50;99.90;;;;;;5033025;28;20104;-52
2021/01/31 11:36:55;;;;;;;30.50;21.83;;;6.50;99.90;;;;;;5033065;28;20596;-52
2021/01/31 11:39:21;;;;;;;29.80;21.13;;;6.50;99.90;;;;;;5010633;28;20034;-51
2021/01/31 11:41:48;;;;;;;38.03;26.35;;;6.40;99.90;;;;;;5010893;28;20184;-49
2021/01/31 11:44:13;;;;;;;30.20;21.20;;;6.40;99.90;;;;;;4991870;28;20033;-52
2021/01/31 11:46:39;;;;;;;25.38;19.40;;;6.30;99.90;;;;;;4996838;28;20034;-52
2021/01/31 11:49:05;;;;;;;28.98;20.75;;;6.30;99.90;;;;;;5030019;28;20476;-53
2021/01/31 11:51:30;;;;;;;24.33;17.60;;;6.20;99.90;;;;;;5030178;28;20037;-52
2021/01/31 11:53:57;;;;;;;25.13;16.63;;;6.20;99.90;;;;;;5030043;28;20042;-52
2021/01/31 11:56:23;;;;;;;28.35;20.52;;;6.00;99.90;;;;;;5030187;28;20033;-54
2021/01/31 11:58:48;;;;;;;28.42;20.73;;;6.10;99.90;;;;;;5030174;28;20107;-55
2021/01/31 12:01:15;;;;;;;25.33;19.02;;;6.00;99.90;;;;;;5029835;28;20029;-52
2021/01/31 12:03:47;;;;;;;32.58;22.60;;;6.00;99.90;;;;;;4996969;28;20099;-54
2021/01/31 12:06:14;;;;;;;26.52;19.98;;;6.00;99.90;;;;;;5030483;28;20120;-58
2021/01/31 12:08:40;;;;;;;30.00;21.13;;;6.10;99.90;;;;;;5013619;28;20075;-47
2021/01/31 12:11:07;;;;;;;35.33;24.00;;;6.20;99.90;;;;;;5031760;28;20132;-48
2021/01/31 12:13:33;;;;;;;30.33;21.23;;;6.30;99.90;;;;;;5030525;28;20132;-54
2021/01/31 12:15:59;;;;;;;33.35;21.65;;;6.20;99.90;;;;;;5032021;28;20448;-52
2021/01/31 12:18:25;;;;;;;29.35;21.60;;;6.10;99.90;;;;;;5032058;28;20044;-52
2021/01/31 12:20:50;;;;;;;28.13;20.02;;;6.20;99.90;;;;;;5032287;28;20457;-52
2021/01/31 12:23:16;;;;;;;31.02;22.15;;;6.20;99.90;;;;;;5031654;28;20125;-53
2021/01/31 12:25:42;;;;;;;25.23;19.45;;;6.20;99.90;;;;;;5032763;28;20033;-53
2021/01/31 12:28:08;;;;;;;42.75;27.17;;;6.30;99.90;;;;;;5034012;28;20021;-53
2021/01/31 12:30:34;;;;;;;20.60;15.75;;;6.40;99.90;;;;;;5035097;28;20464;-52
2021/01/31 12:33:02;;;;;;;26.80;20.85;;;6.20;99.90;;;;;;5017631;28;20033;-53
2021/01/31 12:49:30;;;;;;;29.00;22.60;;;6.50;99.90;;;;;;5109902;27;20117;-52
2021/01/31 12:51:56;;;;;;;24.17;18.13;;;7.10;99.30;;;;;;5037126;28;20033;-53
2021/01/31 12:54:23;;;;;;;30.33;21.63;;;6.70;99.90;;;;;;5089666;28;20037;-52
2021/01/31 12:56:50;;;;;;;42.42;28.48;;;6.80;99.90;;;;;;5087911;28;20036;-53
2021/01/31 12:59:16;;;;;;;29.95;22.63;;;6.90;99.90;;;;;;5089412;28;20026;-52
2021/01/31 13:01:42;;;;;;;27.42;20.63;;;7.10;99.90;;;;;;5089339;28;20032;-52
2021/01/31 13:04:08;;;;;;;19.23;15.55;;;7.00;99.90;;;;;;5087936;28;20513;-52
2021/01/31 13:06:33;;;;;;;19.83;15.20;;;6.90;99.80;;;;;;5089223;28;20020;-52
2021/01/31 13:08:59;;;;;;;21.88;17.13;;;6.70;99.90;;;;;;5089252;28;20103;-52
2021/01/31 13:11:25;;;;;;;20.10;16.75;;;6.50;99.90;;;;;;5089082;28;20028;-53
2021/01/31 13:13:50;;;;;;;22.33;18.17;;;6.60;99.90;;;;;;5089053;28;20074;-52